Time;durP1;ratioP1;P1;durP2;ratioP2;P2;SDS_P1;SDS_P2;PMS_P1;PMS_P2;Temp;Humidity;BMP_temperature;BMP_pressure;BME280_temperature;BME280_humidity;BME280_pressure;Samples;Min_cycle;Max_cycle;Signal;HPM_P1;HPM_P2
2021/07/08 00:00:26;;;;;;;61.13;57.95;;;;;;;20.02;67.33;93868.28;5073296;28;20606;-61
2021/07/08 00:02:52;;;;;;;59.05;55.85;;;;;;;19.98;67.22;93868.03;5069359;28;20517;-61
2021/07/08 00:05:21;;;;;;;60.20;56.78;;;;;;;19.96;67.37;93867.91;5069806;28;20067;-61
2021/07/08 00:07:46;;;;;;;58.85;55.67;;;;;;;19.90;67.38;93868.25;5090021;28;20111;-59
2021/07/08 00:10:14;;;;;;;63.83;60.63;;;;;;;19.91;67.12;93861.28;5077288;28;20111;-60
2021/07/08 00:12:40;;;;;;;58.93;56.03;;;;;;;19.86;67.54;93861.63;5069505;28;20024;-60
2021/07/08 00:15:12;;;;;;;64.78;61.30;;;;;;;19.75;67.78;93860.22;5069621;28;20500;-59
2021/07/08 00:17:41;;;;;;;65.07;61.70;;;;;;;19.77;67.97;93854.03;5069265;28;20056;-59
2021/07/08 00:20:09;;;;;;;63.83;60.38;;;;;;;19.67;68.76;93854.81;5069312;28;20550;-59
2021/07/08 00:22:35;;;;;;;66.75;63.58;;;;;;;19.60;69.31;93852.94;5069596;28;20471;-60
2021/07/08 00:25:00;;;;;;;66.47;62.65;;;;;;;19.66;68.75;93855.41;5083174;28;20027;-60
2021/07/08 00:27:26;;;;;;;65.75;62.45;;;;;;;19.60;68.75;93846.59;5089266;28;20260;-57
2021/07/08 00:29:51;;;;;;;61.10;57.72;;;;;;;19.61;67.98;93854.41;5089663;28;20020;-57
2021/07/08 00:32:17;;;;;;;61.20;58.03;;;;;;;19.71;67.68;93859.94;5090735;28;20099;-57
2021/07/08 00:34:43;;;;;;;59.78;56.72;;;;;;;19.75;67.84;93865.81;5093587;28;20508;-57
2021/07/08 00:37:08;;;;;;;62.65;59.55;;;;;;;19.75;67.90;93871.41;5093744;28;20028;-57
2021/07/08 00:39:34;;;;;;;62.83;58.83;;;;;;;19.68;68.14;93861.16;5093451;28;20119;-58
2021/07/08 00:41:59;;;;;;;63.15;59.78;;;;;;;19.65;68.39;93871.50;5093057;28;20019;-58
2021/07/08 00:44:24;;;;;;;69.68;66.07;;;;;;;19.64;69.19;93864.41;5092086;28;20027;-59
2021/07/08 00:46:50;;;;;;;65.70;62.15;;;;;;;19.63;68.93;93860.16;5093415;28;20020;-59
2021/07/08 00:49:16;;;;;;;60.20;57.00;;;;;;;19.66;68.27;93872.94;5093534;28;20065;-59
2021/07/08 00:51:42;;;;;;;62.22;58.80;;;;;;;19.48;68.59;93865.38;5093328;28;20028;-59
2021/07/08 00:54:09;;;;;;;56.85;53.78;;;;;;;19.51;68.01;93864.91;5093352;28;20111;-59
2021/07/08 00:56:35;;;;;;;57.47;54.25;;;;;;;19.47;68.07;93867.44;5086807;28;20107;-58
2021/07/08 00:59:06;;;;;;;60.83;57.58;;;;;;;19.41;68.28;93858.63;5088583;28;20043;-58
2021/07/08 01:01:32;;;;;;;61.97;58.83;;;;;;;19.27;69.01;93863.25;5072770;28;20032;-58
2021/07/08 01:03:58;;;;;;;62.97;59.42;;;;;;;19.24;69.25;93860.91;5072883;28;20028;-58
2021/07/08 01:06:26;;;;;;;64.88;61.20;;;;;;;19.34;68.92;93865.16;5072874;28;20046;-58
2021/07/08 01:08:52;;;;;;;61.42;58.20;;;;;;;19.29;69.02;93865.47;5072992;28;20024;-58
2021/07/08 01:11:17;;;;;;;60.78;57.67;;;;;;;19.27;68.47;93871.66;5073013;28;20024;-58
2021/07/08 01:13:43;;;;;;;58.00;54.97;;;;;;;19.15;68.43;93870.06;5072550;28;20063;-52
2021/07/08 01:16:09;;;;;;;53.17;50.58;;;;;;;19.20;67.89;93874.63;5072772;28;20028;-53
2021/07/08 01:18:34;;;;;;;60.30;57.13;;;;;;;19.23;67.94;93870.66;5072824;28;20162;-53
2021/07/08 01:21:18;;;;;;;50.30;47.60;;;;;;;19.22;67.89;93878.31;5072742;28;20682;-53
2021/07/08 01:23:44;;;;;;;50.90;48.30;;;;;;;19.14;68.28;93872.16;5076084;28;20066;-52
2021/07/08 01:26:09;;;;;;;55.80;52.97;;;;;;;19.11;68.53;93875.41;5092697;28;20044;-51
2021/07/08 01:28:35;;;;;;;56.97;53.85;;;;;;;19.07;68.97;93880.72;5108408;28;20034;-50
2021/07/08 01:31:00;;;;;;;57.03;54.05;;;;;;;18.95;69.06;93882.69;5108659;28;20039;-53
2021/07/08 01:33:26;;;;;;;54.20;51.15;;;;;;;19.02;68.83;93878.97;5092899;28;20459;-53
2021/07/08 01:35:51;;;;;;;53.60;50.78;;;;;;;19.00;69.05;93881.63;5092891;28;20028;-52
2021/07/08 01:38:17;;;;;;;56.25;53.25;;;;;;;18.91;69.23;93874.72;5092889;28;20481;-52
2021/07/08 01:40:42;;;;;;;52.55;49.72;;;;;;;18.88;69.10;93871.03;5092841;28;20489;-51
2021/07/08 01:43:07;;;;;;;56.10;53.20;;;;;;;18.98;68.69;93876.63;5073042;28;20035;-59
2021/07/08 01:45:33;;;;;;;54.67;51.85;;;;;;;19.02;68.57;93878.97;5071757;28;20078;-56
2021/07/08 01:47:58;;;;;;;52.38;49.40;;;;;;;18.93;68.74;93875.59;5072087;28;20021;-54
2021/07/08 01:50:24;;;;;;;54.70;51.50;;;;;;;18.87;68.82;93880.78;5071966;28;20020;-54
2021/07/08 01:52:49;;;;;;;55.90;53.05;;;;;;;18.84;68.84;93881.25;5077935;28;20020;-50
2021/07/08 01:55:15;;;;;;;59.80;56.47;;;;;;;18.77;68.92;93876.53;5092399;28;20032;-56
2021/07/08 01:57:42;;;;;;;54.40;51.58;;;;;;;18.69;69.59;93876.69;5092326;28;20565;-57
2021/07/08 02:00:09;;;;;;;59.45;56.10;;;;;;;18.86;68.80;93876.50;5091484;28;20035;-58
2021/07/08 02:02:34;;;;;;;54.35;51.25;;;;;;;18.89;68.88;93869.72;5071698;28;20039;-58
2021/07/08 02:05:00;;;;;;;45.53;43.03;;;;;;;18.86;68.17;93876.50;5072216;28;20064;-57
2021/07/08 02:07:25;;;;;;;46.60;44.03;;;;;;;18.83;67.96;93877.69;5071969;28;20027;-58
2021/07/08 02:09:51;;;;;;;47.85;45.35;;;;;;;18.75;68.20;93874.31;5070451;28;20513;-58
2021/07/08 02:12:16;;;;;;;48.95;46.38;;;;;;;18.65;68.75;93876.41;5071616;28;20031;-57
2021/07/08 02:14:42;;;;;;;50.60;47.53;;;;;;;18.67;68.64;93882.16;5071538;28;20025;-57
2021/07/08 02:17:07;;;;;;;50.20;46.65;;;;;;;18.67;68.27;93873.00;5071725;28;20028;-56
2021/07/08 02:19:32;;;;;;;51.17;47.97;;;;;;;18.61;68.61;93878.19;5071696;28;20059;-54
2021/07/08 02:21:58;;;;;;;50.50;47.55;;;;;;;18.46;68.83;93870.13;5071356;28;20024;-55
2021/07/08 02:24:23;;;;;;;49.60;46.85;;;;;;;18.51;68.52;93883.81;5080086;28;20031;-53
2021/07/08 02:26:49;;;;;;;46.55;44.10;;;;;;;18.47;68.76;93874.38;5091171;28;20048;-56
2021/07/08 02:29:15;;;;;;;47.08;44.63;;;;;;;18.41;68.33;93871.84;5091380;28;20066;-58
2021/07/08 02:31:41;;;;;;;42.55;40.22;;;;;;;18.45;67.79;93877.75;5091679;28;20119;-58
2021/07/08 02:34:06;;;;;;;42.55;40.30;;;;;;;18.42;68.16;93875.38;5091233;28;20027;-59
2021/07/08 02:36:31;;;;;;;46.10;43.65;;;;;;;18.36;68.50;93883.34;5091507;28;20069;-57
2021/07/08 02:38:57;;;;;;;44.97;42.38;;;;;;;18.35;68.41;93876.28;5091507;28;20397;-56
2021/07/08 02:41:22;;;;;;;45.95;43.47;;;;;;;18.38;68.35;93884.22;5091123;28;20046;-58
2021/07/08 02:43:48;;;;;;;45.80;43.25;;;;;;;18.36;68.52;93880.56;5091444;28;20554;-58
2021/07/08 02:46:13;;;;;;;43.63;41.30;;;;;;;18.23;68.61;93878.19;5091318;28;20020;-57
2021/07/08 02:48:39;;;;;;;44.05;41.25;;;;;;;18.20;68.57;93882.91;5088785;28;20031;-57
2021/07/08 02:51:04;;;;;;;44.47;42.08;;;;;;;18.24;68.24;93882.44;5070988;28;20107;-58
2021/07/08 02:53:30;;;;;;;47.30;44.72;;;;;;;18.21;67.82;93884.38;5071191;28;20382;-58
2021/07/08 02:55:56;;;;;;;45.15;42.72;;;;;;;18.15;68.72;93881.88;5069526;28;20059;-58
2021/07/08 02:58:21;;;;;;;44.75;42.38;;;;;;;18.03;69.12;93885.84;5070890;28;20020;-57
2021/07/08 03:00:48;;;;;;;47.33;44.45;;;;;;;18.14;68.89;93888.06;5070772;28;20496;-55
2021/07/08 03:03:14;;;;;;;43.25;40.92;;;;;;;18.03;68.66;93880.25;5070510;28;20674;-56
2021/07/08 03:05:40;;;;;;;45.67;43.33;;;;;;;18.09;68.49;93889.81;5070566;28;20485;-59
2021/07/08 03:08:05;;;;;;;40.55;38.33;;;;;;;18.15;68.29;93895.09;5070358;28;20020;-57
2021/07/08 03:10:32;;;;;;;41.13;38.72;;;;;;;18.06;68.57;93899.38;5070424;28;20028;-57
2021/07/08 03:12:58;;;;;;;44.53;42.03;;;;;;;17.98;68.74;93892.44;5070685;28;20415;-57
2021/07/08 03:15:24;;;;;;;44.95;39.53;;;;;;;17.88;69.51;93894.50;5070259;28;20044;-55
2021/07/08 03:17:50;;;;;;;41.28;38.80;;;;;;;18.03;68.54;93897.03;5070497;28;20067;-54
2021/07/08 03:20:21;;;;;;;48.53;43.28;;;;;;;17.93;68.82;93891.41;5081428;28;20028;-57
2021/07/08 03:22:49;;;;;;;41.42;38.92;;;;;;;17.86;68.63;93889.50;5087561;28;20028;-53
2021/07/08 03:25:15;;;;;;;44.25;41.70;;;;;;;18.01;68.34;93892.03;5073384;28;20111;-56
2021/07/08 03:27:41;;;;;;;43.13;40.50;;;;;;;17.87;69.08;93890.97;5068512;28;20613;-56
2021/07/08 03:30:10;;;;;;;42.63;40.25;;;;;;;18.01;69.00;93894.81;5070186;28;20024;-56
2021/07/08 03:32:36;;;;;;;39.42;37.05;;;;;;;18.04;68.10;93902.00;5069801;28;20055;-56
2021/07/08 03:35:01;;;;;;;41.60;38.70;;;;;;;17.96;68.53;93893.03;5070241;28;20119;-57
2021/07/08 03:37:27;;;;;;;43.88;41.17;;;;;;;17.99;68.77;93899.53;5088791;28;20064;-56
2021/07/08 03:39:52;;;;;;;43.38;40.95;;;;;;;17.88;69.19;93900.84;5090253;28;20085;-58
2021/07/08 03:42:18;;;;;;;46.08;43.47;;;;;;;17.80;69.72;93905.09;5089948;28;20074;-57
2021/07/08 03:44:44;;;;;;;46.17;43.15;;;;;;;17.86;69.79;93909.06;5089282;28;20103;-57
2021/07/08 03:47:09;;;;;;;48.13;45.40;;;;;;;17.84;70.18;93906.13;5070205;28;20023;-57
2021/07/08 03:49:35;;;;;;;49.65;46.60;;;;;;;17.78;70.66;93899.34;5070159;28;20020;-57
2021/07/08 03:52:00;;;;;;;45.75;43.17;;;;;;;17.94;69.60;93901.28;5070292;28;20033;-47
2021/07/08 03:54:25;;;;;;;49.72;46.72;;;;;;;18.03;69.39;93900.56;5070045;28;20425;-48
2021/07/08 03:56:51;;;;;;;48.70;46.00;;;;;;;18.13;69.45;93909.69;5069983;28;20027;-49
2021/07/08 03:59:16;;;;;;;46.72;43.40;;;;;;;18.05;69.66;93900.72;5069970;28;20024;-48
2021/07/08 04:01:42;;;;;;;48.13;45.42;;;;;;;18.14;69.26;93902.78;5069753;28;20029;-47
2021/07/08 04:04:07;;;;;;;48.03;45.28;;;;;;;18.07;69.50;93903.66;5069691;28;20023;-47
2021/07/08 04:06:33;;;;;;;49.47;46.33;;;;;;;18.12;69.83;93901.88;5069238;28;20444;-48
2021/07/08 04:08:58;;;;;;;47.75;44.88;;;;;;;18.08;69.91;93904.38;5069696;28;20032;-48
2021/07/08 04:11:24;;;;;;;46.20;43.53;;;;;;;18.22;70.07;93907.47;5069616;28;20025;-49
2021/07/08 04:13:49;;;;;;;49.90;47.08;;;;;;;18.16;69.91;93905.72;5069413;28;20086;-47
2021/07/08 04:16:15;;;;;;;50.58;47.53;;;;;;;18.17;70.26;93909.97;5069693;28;20024;-48
2021/07/08 04:18:40;;;;;;;56.20;52.30;;;;;;;18.21;70.62;93912.34;5069600;28;20607;-50
2021/07/08 04:21:06;;;;;;;55.00;51.50;;;;;;;18.24;70.97;93907.63;5069382;28;20489;-49
2021/07/08 04:23:31;;;;;;;52.72;49.38;;;;;;;18.27;70.92;93909.25;5071379;28;20108;-53
2021/07/08 04:25:56;;;;;;;63.33;59.63;;;;;;;18.33;71.19;93913.22;5089598;28;20055;-52
2021/07/08 04:28:23;;;;;;;72.82;68.40;;;;;;;18.40;71.74;93922.78;5089816;28;20048;-51
2021/07/08 04:30:49;;;;;;;75.85;71.45;;;;;;;18.45;71.95;93918.97;5089886;28;20063;-51
2021/07/08 04:33:14;;;;;;;65.68;61.60;;;;;;;18.51;72.05;93922.22;5089809;28;20024;-55
2021/07/08 04:35:40;;;;;;;81.60;77.20;;;;;;;18.57;72.99;93917.06;5089820;28;20020;-49
2021/07/08 04:38:11;;;;;;;82.38;77.93;;;;;;;18.62;72.86;93918.81;5089596;28;20024;-51
2021/07/08 04:40:37;;;;;;;93.93;88.78;;;;;;;18.73;73.42;93926.63;5089339;28;20032;-51
2021/07/08 04:43:04;;;;;;;105.63;99.53;;;;;;;18.68;74.01;93919.25;5088663;28;20028;-53
2021/07/08 04:45:29;;;;;;;97.75;91.68;;;;;;;18.82;74.30;93920.97;5089610;28;20040;-49
2021/07/08 04:47:55;;;;;;;99.40;93.97;;;;;;;18.85;74.11;93922.59;5089589;28;20101;-47
2021/07/08 04:50:22;;;;;;;100.18;94.32;;;;;;;18.94;73.68;93929.50;5089637;28;20325;-49
2021/07/08 04:52:48;;;;;;;90.25;85.60;;;;;;;19.01;74.11;93923.03;5089272;28;20028;-53
2021/07/08 04:55:18;;;;;;;92.45;87.18;;;;;;;19.08;74.16;93927.69;5089572;28;20047;-49
2021/07/08 04:57:45;;;;;;;103.65;97.90;;;;;;;19.19;74.39;93924.28;5089498;28;20032;-51
2021/07/08 05:00:12;;;;;;;100.82;94.50;;;;;;;19.27;74.86;93918.50;5103857;28;20031;-50
2021/07/08 05:02:41;;;;;;;107.72;99.70;;;;;;;19.28;74.41;93922.78;5068832;28;20504;-50
2021/07/08 05:05:07;;;;;;;102.65;93.75;;;;;;;19.35;73.71;93924.69;5068994;28;20489;-56
2021/07/08 05:07:33;;;;;;;143.20;127.18;;;;;;;19.37;73.10;93919.97;5069164;28;20024;-56
2021/07/08 05:09:58;;;;;;;106.10;96.25;;;;;;;19.41;73.14;93931.44;5068865;28;20016;-60
2021/07/08 05:12:24;;;;;;;94.32;85.88;;;;;;;19.48;73.73;93941.00;5068926;28;20020;-56
2021/07/08 05:14:49;;;;;;;94.40;86.93;;;;;;;19.56;73.50;93931.09;5069164;28;20059;-54
2021/07/08 05:17:15;;;;;;;94.70;87.13;;;;;;;19.61;73.17;93943.31;5068998;28;20037;-52
2021/07/08 05:19:40;;;;;;;100.97;91.95;;;;;;;19.70;73.74;93944.59;5070799;28;20029;-55
2021/07/08 05:22:06;;;;;;;107.38;98.45;;;;;;;19.78;74.32;93939.53;5075825;28;20050;-53
2021/07/08 05:24:32;;;;;;;121.78;99.75;;;;;;;19.82;74.78;93956.63;5098760;28;20116;-54
2021/07/08 05:26:58;;;;;;;108.28;100.13;;;;;;;19.88;75.39;93952.16;5071046;28;20586;-53
2021/07/08 05:29:23;;;;;;;106.32;98.88;;;;;;;19.89;74.93;93952.91;5072387;28;20032;-51
2021/07/08 05:31:50;;;;;;;118.97;111.40;;;;;;;19.86;75.38;93937.28;5072674;28;20033;-52
2021/07/08 05:34:15;;;;;;;114.57;106.35;;;;;;;20.08;74.85;93949.97;5071089;28;20024;-50
2021/07/08 05:36:41;;;;;;;109.70;102.75;;;;;;;20.13;74.41;93944.06;5072303;28;20029;-52
2021/07/08 05:39:06;;;;;;;152.77;141.95;;;;;;;20.21;74.67;93955.81;5088878;28;20035;-50
2021/07/08 05:41:32;;;;;;;116.55;107.40;;;;;;;20.31;74.50;93950.16;5086184;28;20246;-51
2021/07/08 05:43:58;;;;;;;105.90;98.28;;;;;;;20.44;74.69;93952.44;5072202;28;20051;-52
2021/07/08 05:46:23;;;;;;;92.60;86.10;;;;;;;20.51;74.64;93954.28;5072044;28;20024;-53
2021/07/08 05:48:49;;;;;;;107.65;100.65;;;;;;;20.63;75.54;93952.28;5072209;28;20028;-55
2021/07/08 05:51:15;;;;;;;72.55;67.78;;;;;;;20.62;74.56;93945.19;5072542;28;20036;-55
2021/07/08 05:53:40;;;;;;;73.45;68.80;;;;;;;20.66;73.50;93939.81;5071177;28;20028;-55
2021/07/08 05:56:06;;;;;;;75.38;70.35;;;;;;;20.85;74.24;93962.13;5071978;28;20076;-58
2021/07/08 05:58:31;;;;;;;82.00;76.50;;;;;;;20.99;74.27;93953.84;5070811;28;20066;-58
2021/07/08 06:00:57;;;;;;;76.57;70.75;;;;;;;21.03;74.35;93959.75;5079543;28;20012;-58
2021/07/08 06:03:23;;;;;;;78.18;72.30;;;;;;;21.05;74.01;93968.34;5092139;28;20443;-58
2021/07/08 06:05:49;;;;;;;72.65;67.32;;;;;;;21.12;73.20;93962.47;5092441;28;20036;-58
2021/07/08 06:08:14;;;;;;;71.75;66.68;;;;;;;21.22;72.90;93962.38;5092348;28;20492;-58
2021/07/08 06:10:43;;;;;;;66.28;62.08;;;;;;;21.39;71.58;93964.13;5092249;28;20028;-56
2021/07/08 06:13:12;;;;;;;65.82;62.08;;;;;;;21.42;71.62;93946.06;5092120;28;20098;-54
2021/07/08 06:15:37;;;;;;;59.45;56.05;;;;;;;21.55;71.84;93960.22;5092082;28;20095;-58
2021/07/08 06:18:05;;;;;;;61.30;57.75;;;;;;;21.77;70.58;93955.97;5092005;28;20028;-58
2021/07/08 06:20:32;;;;;;;56.28;53.03;;;;;;;21.81;72.00;93959.03;5091768;28;20680;-55
2021/07/08 06:22:57;;;;;;;64.07;60.00;;;;;;;21.88;72.00;93958.09;5091927;28;20028;-56
2021/07/08 06:25:26;;;;;;;59.33;55.85;;;;;;;21.84;72.69;93943.03;5074349;28;20629;-56
2021/07/08 06:27:51;;;;;;;56.42;53.30;;;;;;;22.10;72.21;93955.13;5071421;28;20507;-58
2021/07/08 06:30:17;;;;;;;58.47;54.80;;;;;;;22.21;72.11;93951.56;5071048;28;20043;-58
2021/07/08 06:32:43;;;;;;;56.42;53.20;;;;;;;22.37;71.75;93952.53;5071494;28;20032;-56
2021/07/08 06:35:09;;;;;;;59.40;55.95;;;;;;;22.42;71.55;93949.31;5085950;28;20028;-58
2021/07/08 06:37:37;;;;;;;53.67;50.90;;;;;;;22.51;71.45;93951.25;5091594;28;20024;-58
2021/07/08 06:40:04;;;;;;;73.20;68.97;;;;;;;22.72;69.58;93961.63;5091350;28;20031;-62
2021/07/08 06:42:29;;;;;;;65.60;62.03;;;;;;;22.81;69.78;93960.00;5076874;28;20071;-59
2021/07/08 06:44:55;;;;;;;63.75;60.45;;;;;;;22.87;70.22;93951.91;5070888;28;20059;-59
2021/07/08 06:47:21;;;;;;;67.53;64.13;;;;;;;22.95;70.26;93958.72;5071198;28;20024;-59
2021/07/08 06:49:47;;;;;;;59.88;56.72;;;;;;;23.05;68.19;93955.72;5070869;28;20029;-59
2021/07/08 06:52:14;;;;;;;61.13;58.03;;;;;;;23.15;69.40;93959.13;5071096;28;20097;-59
2021/07/08 06:54:39;;;;;;;68.10;64.70;;;;;;;23.16;69.43;93946.50;5071040;28;20476;-58
2021/07/08 06:57:05;;;;;;;63.65;58.22;;;;;;;23.33;68.58;93965.78;5070924;28;20017;-59
2021/07/08 06:59:30;;;;;;;58.72;55.42;;;;;;;23.45;68.30;93952.34;5070971;28;20052;-57
2021/07/08 07:01:56;;;;;;;60.75;57.35;;;;;;;23.47;68.03;93948.91;5086375;28;20512;-58
2021/07/08 07:04:21;;;;;;;49.30;46.75;;;;;;;23.41;65.83;93918.31;5090890;28;20428;-58
2021/07/08 07:06:48;;;;;;;37.33;35.35;;;;;;;23.75;63.63;93961.72;5091158;28;20013;-58
2021/07/08 07:09:13;;;;;;;58.80;55.45;;;;;;;23.83;66.34;93957.22;5090696;28;20039;-54
2021/07/08 07:11:39;;;;;;;40.05;37.35;;;;;;;23.97;64.43;93957.97;5090643;28;20016;-51
2021/07/08 07:14:04;;;;;;;53.60;50.70;;;;;;;23.76;66.28;93907.50;5090931;28;20024;-50
2021/07/08 07:16:29;;;;;;;35.63;33.78;;;;;;;24.19;64.38;93947.13;5090485;28;20110;-56
2021/07/08 07:18:55;;;;;;;36.25;34.22;;;;;;;24.16;63.44;93936.38;5090730;28;20020;-56
2021/07/08 07:21:20;;;;;;;29.35;27.42;;;;;;;24.36;62.66;93954.34;5087168;28;20666;-58
2021/07/08 07:23:46;;;;;;;20.42;19.02;;;;;;;24.44;61.29;93951.94;5074166;28;20032;-57
2021/07/08 07:26:13;;;;;;;32.90;31.10;;;;;;;24.58;62.62;93956.19;5090531;28;20040;-58
2021/07/08 07:28:38;;;;;;;21.77;19.85;;;;;;;24.82;59.80;93948.94;5090160;28;20026;-57
2021/07/08 07:31:04;;;;;;;28.92;27.38;;;;;;;25.01;63.25;93958.31;5090526;28;20028;-58
2021/07/08 07:33:30;;;;;;;15.95;14.30;;;;;;;25.03;60.06;93953.50;5089971;28;20028;-57
2021/07/08 07:35:56;;;;;;;18.00;16.50;;;;;;;25.25;60.51;93953.84;5090264;28;20108;-57
2021/07/08 07:38:22;;;;;;;31.48;16.50;;;;;;;25.54;60.28;93954.56;5090323;28;20027;-58
2021/07/08 07:40:47;;;;;;;15.93;14.73;;;;;;;25.95;57.15;93959.22;5090339;28;20401;-56
2021/07/08 07:43:13;;;;;;;11.52;10.55;;;;;;;26.34;53.88;93959.56;5069435;28;20463;-57
2021/07/08 07:45:40;;;;;;;12.27;11.10;;;;;;;26.60;54.30;93952.22;5070089;28;20504;-52
2021/07/08 07:48:06;;;;;;;11.38;10.25;;;;;;;26.99;53.87;93957.41;5069984;28;20024;-51
2021/07/08 07:50:33;;;;;;;13.13;10.45;;;;;;;27.22;50.01;93959.03;5069641;28;20575;-49
2021/07/08 07:52:59;;;;;;;11.70;10.80;;;;;;;27.34;49.27;93956.69;5069867;28;20024;-47
2021/07/08 07:55:27;;;;;;;12.38;9.95;;;;;;;27.38;50.79;93962.53;5080456;28;20031;-50
2021/07/08 07:57:53;;;;;;;11.77;10.60;;;;;;;27.31;48.89;93964.38;5088859;28;20574;-54
2021/07/08 08:00:18;;;;;;;11.45;9.85;;;;;;;27.19;49.32;93963.91;5089674;28;20024;-52
2021/07/08 08:02:44;;;;;;;10.38;9.48;;;;;;;27.27;50.52;93954.97;5090052;28;20032;-49
2021/07/08 08:10:25;;;;;;;11.80;9.90;;;;;;;28.03;48.10;93960.09;5069833;28;20035;-46
2021/07/08 08:12:50;;;;;;;9.48;8.63;;;;;;;28.15;46.74;93966.25;5069713;28;20756;-48
2021/07/08 08:15:17;;;;;;;10.32;9.27;;;;;;;28.17;46.95;93963.47;5085439;28;20036;-49
2021/07/08 08:17:43;;;;;;;10.20;9.10;;;;;;;28.34;47.50;93965.53;5069826;28;20040;-47
2021/07/08 08:20:09;;;;;;;9.93;8.75;;;;;;;28.49;45.77;93964.63;5069639;28;20410;-48
2021/07/08 08:22:37;;;;;;;10.63;9.43;;;;;;;28.63;46.44;93965.16;5069433;28;20021;-48
2021/07/08 08:25:03;;;;;;;9.82;8.82;;;;;;;28.75;46.01;93959.16;5083576;28;20093;-49
2021/07/08 08:27:28;;;;;;;10.00;9.20;;;;;;;28.91;47.46;93971.81;5089383;28;20052;-50
2021/07/08 08:29:54;;;;;;;10.95;9.15;;;;;;;29.07;44.58;93965.94;5087231;28;20020;-48
2021/07/08 08:32:19;;;;;;;9.98;7.85;;;;;;;29.19;44.16;93972.06;5069579;28;20021;-49
2021/07/08 08:34:45;;;;;;;10.65;8.23;;;;;;;29.39;44.56;93967.03;5069459;28;20105;-48
2021/07/08 08:37:10;;;;;;;10.38;8.18;;;;;;;29.60;43.12;93963.44;5069526;28;20552;-50
2021/07/08 08:39:36;;;;;;;10.88;8.80;;;;;;;29.80;42.91;93969.78;5088032;28;20397;-49
2021/07/08 08:42:01;;;;;;;8.70;7.70;;;;;;;30.06;43.01;93963.44;5078897;28;20517;-48
2021/07/08 08:44:26;;;;;;;9.20;8.40;;;;;;;30.38;41.24;93958.69;5067737;28;20074;-46
2021/07/08 08:46:52;;;;;;;11.05;8.77;;;;;;;30.38;41.82;93961.53;5069025;28;20020;-47
2021/07/08 08:49:18;;;;;;;9.98;7.60;;;;;;;30.57;40.28;93966.34;5069298;28;20029;-48
2021/07/08 08:51:44;;;;;;;9.75;7.18;;;;;;;30.83;43.69;93967.06;5069319;28;20025;-52
2021/07/08 08:54:09;;;;;;;14.18;6.82;;;;;;;31.10;40.09;93968.50;5082916;28;20075;-46
2021/07/08 08:56:35;;;;;;;9.13;6.32;;;;;;;31.21;40.04;93973.03;5093198;28;20024;-48
2021/07/08 08:59:00;;;;;;;6.82;6.32;;;;;;;31.57;38.62;93971.13;5093244;28;20027;-47
2021/07/08 09:01:26;;;;;;;7.93;6.85;;;;;;;31.97;38.08;93972.06;5087397;28;20408;-49
2021/07/08 09:03:51;;;;;;;11.02;7.47;;;;;;;32.11;37.67;93971.66;5093299;28;20500;-49
2021/07/08 09:06:17;;;;;;;7.50;6.03;;;;;;;32.23;38.35;93968.34;5093099;28;20073;-47
2021/07/08 09:08:47;;;;;;;6.93;6.32;;;;;;;32.53;37.80;93971.84;5093266;28;20404;-46
2021/07/08 09:11:20;;;;;;;6.75;6.05;;;;;;;32.18;37.46;93961.81;5093155;28;20024;-49
2021/07/08 09:13:56;;;;;;;8.25;6.50;;;;;;;32.36;37.55;93964.31;5093127;28;20133;-48
2021/07/08 09:16:23;;;;;;;6.90;6.30;;;;;;;32.55;36.70;93964.03;5084500;28;20041;-48
2021/07/08 09:19:09;;;;;;;7.07;6.38;;;;;;;32.65;39.60;93958.53;5082070;28;20020;-46
2021/07/08 09:21:43;;;;;;;13.43;6.95;;;;;;;32.92;36.63;93957.59;5082674;28;20039;-46
2021/07/08 09:24:15;;;;;;;10.35;6.32;;;;;;;33.04;36.10;93970.69;5081074;28;20028;-46
2021/07/08 09:26:57;;;;;;;6.63;5.90;;;;;;;32.65;36.66;93964.25;5097733;28;20536;-47
2021/07/08 09:29:25;;;;;;;6.68;5.78;;;;;;;32.88;35.87;93960.38;5080478;28;20494;-49
2021/07/08 09:31:54;;;;;;;6.72;5.82;;;;;;;33.03;34.96;93964.25;5080854;28;20463;-49
2021/07/08 09:34:31;;;;;;;6.55;5.70;;;;;;;33.07;35.50;93969.34;5082104;28;20033;-52
2021/07/08 09:37:10;;;;;;;12.65;6.30;;;;;;;32.99;34.40;93969.91;5085453;28;20034;-48
2021/07/08 09:39:41;;;;;;;8.10;6.43;;;;;;;33.07;34.56;93966.47;5082114;28;20413;-48
2021/07/08 09:42:07;;;;;;;7.07;6.50;;;;;;;33.12;36.60;93962.97;5082303;28;20028;-53
2021/07/08 09:44:33;;;;;;;6.28;5.72;;;;;;;33.21;35.50;93970.31;5086265;28;20031;-50
2021/07/08 09:46:59;;;;;;;7.18;6.57;;;;;;;33.38;36.64;93968.44;5090578;28;20459;-47
2021/07/08 09:49:26;;;;;;;6.35;5.85;;;;;;;33.40;34.38;93962.75;5087663;28;20031;-48
2021/07/08 09:51:52;;;;;;;7.70;6.43;;;;;;;33.66;35.40;93965.34;5069224;28;20032;-49
2021/07/08 09:54:43;;;;;;;6.40;5.80;;;;;;;33.40;33.56;93959.88;5070372;28;20105;-48
2021/07/08 09:57:08;;;;;;;7.75;6.40;;;;;;;33.30;33.81;93974.75;5070231;28;20524;-50
2021/07/08 09:59:36;;;;;;;8.27;6.20;;;;;;;33.54;33.15;93980.19;5071169;28;20016;-48
2021/07/08 10:02:02;;;;;;;7.67;7.03;;;;;;;33.42;33.47;93969.22;5087589;28;20074;-49
2021/07/08 10:04:27;;;;;;;7.20;6.40;;;;;;;33.52;34.25;93972.31;5091651;28;20048;-48
2021/07/08 10:06:54;;;;;;;6.60;6.10;;;;;;;33.53;33.31;93976.59;5080957;28;20446;-46
2021/07/08 10:09:20;;;;;;;7.15;6.55;;;;;;;33.65;32.83;93972.47;5084573;28;20069;-48
2021/07/08 10:11:54;;;;;;;7.25;5.70;;;;;;;33.46;32.17;93974.31;5084293;28;20036;-45
2021/07/08 10:14:20;;;;;;;6.70;6.00;;;;;;;33.24;32.31;93974.66;5079664;28;20507;-49
2021/07/08 10:16:51;;;;;;;8.00;6.38;;;;;;;33.09;33.77;93972.22;5084804;28;20023;-48
2021/07/08 10:19:19;;;;;;;6.80;6.20;;;;;;;33.09;35.36;93975.09;5082531;28;20024;-48
2021/07/08 10:21:48;;;;;;;6.57;6.07;;;;;;;33.29;34.23;93972.56;5081606;28;20043;-48
2021/07/08 10:24:14;;;;;;;10.02;6.40;;;;;;;33.07;35.18;93977.91;5078655;28;20458;-48
2021/07/08 10:26:39;;;;;;;6.50;5.90;;;;;;;32.97;35.01;93971.97;5080648;28;20044;-48
2021/07/08 10:29:05;;;;;;;6.47;5.88;;;;;;;32.94;34.64;93979.81;5083168;28;20111;-49
2021/07/08 10:31:31;;;;;;;7.47;6.78;;;;;;;32.58;34.89;93979.81;5081798;28;20016;-46
2021/07/08 10:34:17;;;;;;;7.25;6.57;;;;;;;32.32;33.92;93978.53;5083233;28;20030;-45
2021/07/08 10:36:47;;;;;;;7.53;6.75;;;;;;;32.16;35.54;93976.06;5079817;28;20111;-46
2021/07/08 10:39:23;;;;;;;7.65;6.95;;;;;;;31.82;35.16;93970.28;5078181;28;20505;-46
2021/07/08 10:41:52;;;;;;;8.23;7.22;;;;;;;31.58;35.16;93966.16;5077257;28;20044;-46
2021/07/08 10:44:39;;;;;;;8.07;7.30;;;;;;;31.82;37.03;93963.81;5071141;28;20032;-48
2021/07/08 10:47:06;;;;;;;9.07;6.97;;;;;;;31.65;37.36;93967.72;5071105;28;20024;-46
2021/07/08 10:49:40;;;;;;;8.35;7.55;;;;;;;31.58;37.87;93957.59;5070745;28;20037;-48
2021/07/08 10:52:10;;;;;;;7.88;7.07;;;;;;;31.56;36.24;93972.50;5070938;28;20047;-46
2021/07/08 10:54:35;;;;;;;7.40;6.60;;;;;;;31.68;35.79;93964.25;5086411;28;20513;-47
2021/07/08 10:57:02;;;;;;;8.85;6.68;;;;;;;31.64;37.11;93972.69;5070576;28;20370;-46
2021/07/08 10:59:47;;;;;;;7.38;6.68;;;;;;;31.84;35.05;93964.59;5079127;28;20155;-48
2021/07/08 11:02:43;;;;;;;7.97;6.82;;;;;;;31.99;36.89;93957.09;5088494;28;20107;-47
2021/07/08 11:05:08;;;;;;;92.05;11.48;;;;;;;32.10;36.91;93962.34;5090998;28;20032;-48
2021/07/08 11:07:44;;;;;;;6.93;6.22;;;;;;;32.33;35.46;93960.72;5091091;28;20031;-46
2021/07/08 11:10:11;;;;;;;7.47;6.80;;;;;;;32.48;35.79;93939.59;5090542;28;20040;-49
2021/07/08 11:12:37;;;;;;;6.30;5.80;;;;;;;32.38;34.99;93947.94;5090620;28;20429;-47
2021/07/08 11:15:04;;;;;;;6.95;6.35;;;;;;;31.85;36.66;93957.50;5090828;28;20028;-47
2021/07/08 11:17:39;;;;;;;7.30;6.70;;;;;;;31.86;37.02;93964.66;5089557;28;20081;-48
2021/07/08 11:20:29;;;;;;;7.40;6.70;;;;;;;31.62;36.74;93969.78;5083712;28;20034;-46
2021/07/08 11:22:55;;;;;;;8.23;6.63;;;;;;;31.36;38.02;93957.75;5090312;28;20516;-49